Time;durP1;ratioP1;P1;durP2;ratioP2;P2;SDS_P1;SDS_P2;PMS_P1;PMS_P2;Temp;Humidity;BMP_temperature;BMP_pressure;BME280_temperature;BME280_humidity;BME280_pressure;Samples;Min_cycle;Max_cycle;Signal;HPM_P1;HPM_P2
2022/08/18 00:04:40;;;;;;;21.03;3.33;;;;;;;25.78;67.22;99900.09;4935187;29;20055;-64
2022/08/18 00:08:03;;;;;;;10.43;2.50;;;;;;;25.89;67.16;99885.00;4940646;29;20055;-64
2022/08/18 00:11:29;;;;;;;17.03;3.10;;;;;;;25.90;66.37;99884.03;4878735;29;20100;-62
2022/08/18 00:15:00;;;;;;;5.43;2.37;;;;;;;25.93;65.88;99878.41;4861683;29;20680;-62
2022/08/18 00:18:36;;;;;;;11.20;2.60;;;;;;;25.95;65.73;99873.75;4878474;29;20127;-64
2022/08/18 00:21:54;;;;;;;30.87;3.97;;;;;;;25.99;64.75;99875.19;4838669;29;20054;-63
2022/08/18 00:25:04;;;;;;;11.97;2.63;;;;;;;26.01;65.05;99867.91;4837123;29;20089;-61
2022/08/18 00:28:30;;;;;;;6.60;2.43;;;;;;;26.09;64.30;99865.38;4809028;29;20319;-63
2022/08/18 00:35:36;;;;;;;11.23;2.67;;;;;;;26.32;65.14;99843.75;4775101;30;20076;-60
2022/08/18 00:39:12;;;;;;;10.83;2.40;;;;;;;26.45;64.82;99844.34;4770173;30;20067;-63
2022/08/18 00:46:26;;;;;;;8.47;2.70;;;;;;;26.80;63.81;99837.66;4718801;30;20078;-64
2022/08/18 00:49:31;;;;;;;11.27;2.67;;;;;;;26.93;62.89;99826.66;4738357;30;20065;-62
2022/08/18 00:53:13;;;;;;;6.63;2.63;;;;;;;27.00;62.69;99828.63;4738196;30;20480;-62
2022/08/18 00:56:53;;;;;;;8.67;2.57;;;;;;;27.06;61.97;99822.72;4740006;30;20070;-64
2022/08/18 01:00:37;;;;;;;10.18;2.47;;;;;;;26.87;61.72;99791.41;4774984;30;20056;-64
2022/08/18 01:03:57;;;;;;;12.93;2.63;;;;;;;27.09;62.32;99819.75;4791739;29;20059;-62
2022/08/18 01:07:10;;;;;;;7.70;2.10;;;;;;;26.98;61.58;99808.31;4841551;29;20222;-61
2022/08/18 01:11:06;;;;;;;7.67;2.40;;;;;;;27.14;62.58;99797.03;4847221;29;20077;-64
2022/08/18 01:14:30;;;;;;;19.53;3.10;;;;;;;27.19;63.03;99781.41;4981659;28;19948;-62
2022/08/18 01:21:58;;;;;;;32.37;4.33;;;;;;;27.45;62.17;99779.75;4933581;28;20066;-64
2022/08/18 01:32:05;;;;;;;8.53;2.43;;;;;;;27.85;60.88;99754.50;4896701;29;20068;-61
2022/08/18 01:35:07;;;;;;;9.37;2.20;;;;;;;27.99;60.61;99765.75;4897170;29;20048;-63
2022/08/18 01:38:15;;;;;;;7.47;2.97;;;;;;;27.90;59.39;99765.63;4895826;29;20304;-61
2022/08/18 01:41:50;;;;;;;7.45;2.40;;;;;;;27.84;59.73;99758.19;4888984;29;20084;-62
2022/08/18 01:45:02;;;;;;;16.77;2.50;;;;;;;27.78;59.77;99769.47;4891002;29;20053;-66
2022/08/18 01:48:19;;;;;;;8.83;3.17;;;;;;;27.70;59.43;99753.28;4896400;29;20061;-63
2022/08/18 02:09:10;;;;;;;7.03;2.20;;;;;;;27.96;59.22;99754.31;4912057;29;20049;-62
2022/08/18 02:12:52;;;;;;;17.88;2.85;;;;;;;27.95;60.38;99759.81;4903527;29;20452;-63
2022/08/18 02:16:19;;;;;;;10.73;2.40;;;;;;;27.86;61.80;99750.84;4904113;29;20060;-64
2022/08/18 02:20:04;;;;;;;52.27;6.20;;;;;;;27.83;61.85;99740.41;4823635;29;20174;-62
2022/08/18 02:23:39;;;;;;;15.02;2.50;;;;;;;27.61;62.02;99720.13;4829916;29;20184;-63
2022/08/18 02:27:45;;;;;;;10.47;2.67;;;;;;;27.84;62.34;99751.97;4848292;29;20346;-65
2022/08/18 02:31:25;;;;;;;10.55;2.75;;;;;;;27.85;63.44;99743.75;4794312;30;20268;-64
2022/08/18 02:34:42;;;;;;;12.00;3.45;;;;;;;27.77;63.15;99740.94;4790259;29;20117;-65
2022/08/18 03:13:32;;;;;;;10.20;3.10;;;;;;;27.37;64.01;99734.03;4755176;30;20047;-61
2022/08/18 03:19:08;;;;;;;14.27;3.03;;;;;;;27.13;64.35;99726.44;4777662;29;20356;-65
2022/08/18 03:25:04;;;;;;;21.47;3.50;;;;;;;27.09;65.06;99711.66;4776034;30;20093;-63
2022/08/18 03:27:51;;;;;;;24.80;3.83;;;;;;;26.94;65.32;99679.09;4784265;29;20093;-61
2022/08/18 03:30:39;;;;;;;13.70;3.37;;;;;;;27.10;65.52;99695.41;4858006;29;20069;-61
2022/08/18 03:33:40;;;;;;;11.43;2.83;;;;;;;27.15;65.32;99712.91;4952089;28;20123;-62
2022/08/18 03:37:00;;;;;;;8.87;2.67;;;;;;;27.09;65.02;99704.44;4970273;28;20224;-65
2022/08/18 03:40:13;;;;;;;18.37;3.13;;;;;;;27.11;64.64;99715.88;4967384;28;20046;-63
2022/08/18 03:43:13;;;;;;;10.00;2.80;;;;;;;26.98;65.39;99717.16;4903551;29;20100;-62
2022/08/18 03:46:37;;;;;;;16.00;2.97;;;;;;;26.97;66.51;99713.66;4930621;29;20052;-63
2022/08/18 03:50:13;;;;;;;11.67;2.40;;;;;;;26.83;66.09;99711.41;4885235;29;20158;-64
2022/08/18 03:53:40;;;;;;;6.63;2.77;;;;;;;26.65;65.89;99706.75;4830093;29;20058;-65
2022/08/18 03:57:04;;;;;;;13.37;2.83;;;;;;;26.15;65.99;99660.50;4802925;29;20066;-66
2022/08/18 04:00:22;;;;;;;8.30;2.60;;;;;;;25.91;68.06;99652.84;4801660;29;20363;-63
2022/08/18 04:31:28;;;;;;;21.30;2.97;;;;;;;26.17;69.11;99690.66;4826422;29;20058;-63
2022/08/18 04:34:50;;;;;;;15.00;2.30;;;;;;;26.09;68.94;99688.69;4883887;29;20124;-62
2022/08/18 04:45:18;;;;;;;7.53;2.60;;;;;;;25.98;68.89;99680.75;4783625;30;20115;-64
2022/08/18 04:48:57;;;;;;;43.53;5.07;;;;;;;25.95;68.45;99681.03;4741301;30;20249;-63
2022/08/18 05:06:30;;;;;;;24.65;3.50;;;;;;;25.75;68.88;99670.25;4747740;30;20588;-62
2022/08/18 05:13:03;;;;;;;17.53;3.33;;;;;;;25.56;69.42;99655.00;4709407;30;20057;-65
2022/08/18 05:16:45;;;;;;;9.15;2.25;;;;;;;25.53;70.28;99657.09;4750201;30;20332;-64
2022/08/18 05:24:08;;;;;;;8.43;2.70;;;;;;;25.63;71.50;99649.94;4830627;29;20066;-63
2022/08/18 05:31:23;;;;;;;7.23;3.00;;;;;;;25.50;70.76;99649.34;4886460;29;20083;-62
2022/08/18 05:34:44;;;;;;;23.93;3.90;;;;;;;25.58;70.96;99641.47;4874009;29;20049;-64
2022/08/18 05:38:19;;;;;;;24.90;3.37;;;;;;;25.60;70.57;99642.19;4902194;29;20097;-65
2022/08/18 05:41:41;;;;;;;26.07;3.10;;;;;;;25.61;71.12;99651.94;4905042;29;20072;-63
2022/08/18 05:44:46;;;;;;;10.83;3.13;;;;;;;25.50;70.60;99627.94;4940116;29;20059;-63
2022/08/18 05:48:13;;;;;;;47.10;4.67;;;;;;;25.63;70.50;99660.63;4943014;29;20063;-64
2022/08/18 05:51:33;;;;;;;17.27;3.07;;;;;;;25.59;71.40;99659.22;4943433;29;20064;-64
2022/08/18 06:08:10;;;;;;;9.10;3.20;;;;;;;25.55;71.98;99657.81;4857460;29;20058;-65
2022/08/18 06:11:07;;;;;;;13.83;2.87;;;;;;;25.44;71.20;99660.59;4859556;29;20063;-67
2022/08/18 06:14:16;;;;;;;13.10;3.20;;;;;;;25.46;71.06;99669.31;4857095;29;20045;-65
2022/08/18 06:24:20;;;;;;;80.50;6.67;;;;;;;25.37;71.70;99677.16;4818355;29;20058;-65
2022/08/18 06:27:41;;;;;;;8.77;2.53;;;;;;;25.28;71.95;99671.78;4839118;29;20276;-63
2022/08/18 06:46:43;;;;;;;38.37;4.40;;;;;;;25.09;71.36;99665.31;4829339;29;20088;-64
2022/08/18 06:49:47;;;;;;;53.17;6.07;;;;;;;24.93;70.97;99679.16;4867125;29;20072;-63
2022/08/18 06:53:06;;;;;;;13.20;2.67;;;;;;;24.77;71.69;99688.63;4867014;29;20057;-66
2022/08/18 07:19:09;;;;;;;;;;;;;;;;;;;;;
2022/08/18 07:22:13;;;;;;;8.63;3.07;;;;;;;24.22;75.04;99664.69;4908107;29;20069;-66
2022/08/18 07:25:00;;;;;;;12.20;3.00;;;;;;;24.15;75.18;99658.16;4931393;29;20056;-64
2022/08/18 07:27:55;;;;;;;17.80;3.10;;;;;;;24.40;74.63;99671.16;4933029;29;20063;-64
2022/08/18 07:30:45;;;;;;;9.30;2.63;;;;;;;24.32;74.75;99660.28;4930592;29;20127;-64
2022/08/18 07:34:11;;;;;;;15.10;3.00;;;;;;;24.39;74.54;99664.13;4972132;28;20057;-65
2022/08/18 07:44:42;;;;;;;16.20;3.17;;;;;;;24.15;74.63;99683.00;4990282;28;20057;-61
2022/08/18 07:51:45;;;;;;;9.97;3.83;;;;;;;23.99;75.14;99686.09;4988730;28;20055;-63
2022/08/18 07:55:07;;;;;;;17.70;3.30;;;;;;;23.94;75.09;99687.44;4991326;28;20358;-63
2022/08/18 07:58:17;;;;;;;11.37;2.80;;;;;;;23.82;74.44;99681.28;4989773;28;20042;-64
2022/08/18 08:01:14;;;;;;;11.67;2.70;;;;;;;23.62;74.15;99669.53;4989123;28;20050;-62
2022/08/18 08:04:40;;;;;;;13.33;2.93;;;;;;;23.55;73.99;99693.16;4958142;28;20050;-64
2022/08/18 08:27:04;;;;;;;8.47;2.60;;;;;;;22.71;71.49;99694.34;4841714;29;20242;-63
2022/08/18 08:38:17;;;;;;;11.43;2.83;;;;;;;22.38;71.30;99687.94;4817603;29;20051;-63
2022/08/18 08:49:10;;;;;;;25.40;3.25;;;;;;;22.32;72.58;99694.56;4807719;29;20125;-62
2022/08/18 08:55:39;;;;;;;9.10;2.60;;;;;;;22.19;73.20;99704.41;4798815;29;20121;-62
2022/08/18 08:59:03;;;;;;;9.43;2.30;;;;;;;22.35;73.41;99702.31;4900485;29;20123;-62
2022/08/18 09:05:38;;;;;;;11.80;2.30;;;;;;;22.35;73.49;99699.66;4896451;29;20053;-63
2022/08/18 09:12:31;;;;;;;15.20;3.07;;;;;;;21.63;74.68;99616.28;4850201;29;20066;-62
2022/08/18 09:58:43;;;;;;;;;;;;;;;;;;;;;
2022/08/18 10:13:21;;;;;;;12.73;3.70;;;;;;;20.20;86.03;99741.03;4752517;30;20291;-64
2022/08/18 10:28:37;;;;;;;14.30;4.17;;;;;;;19.95;87.41;99751.53;4839430;29;20500;-63
2022/08/18 10:36:33;;;;;;;17.42;4.85;;;;;;;19.87;87.95;99730.81;4868895;29;20305;-63
2022/08/18 10:43:10;;;;;;;18.80;3.97;;;;;;;19.74;88.83;99738.66;4845148;29;20587;-63
2022/08/18 10:46:03;;;;;;;18.03;4.10;;;;;;;19.67;89.18;99742.66;4903680;29;20277;-64
2022/08/18 10:49:38;;;;;;;11.97;4.10;;;;;;;19.66;89.45;99734.75;4904000;29;20363;-63
2022/08/18 10:53:10;;;;;;;9.40;3.33;;;;;;;19.66;89.45;99745.38;4925873;28;20282;-62
2022/08/18 11:30:50;;;;;;;9.10;4.80;;;;;;;19.27;92.23;99766.28;4966457;27;5834963;-63
2022/08/18 11:33:52;;;;;;;13.53;4.80;;;;;;;19.18;91.95;99750.94;5150047;27;20328;-63
2022/08/18 11:36:39;;;;;;;18.07;6.33;;;;;;;19.25;92.10;99769.97;5113520;27;20332;-63
2022/08/18 11:51:39;;;;;;;18.93;6.00;;;;;;;18.99;92.82;99745.00;5025109;28;20311;-62
2022/08/18 11:59:34;;;;;;;11.77;5.70;;;;;;;18.84;94.15;99737.03;4946331;29;20296;-63
2022/08/18 12:03:35;;;;;;;10.70;5.00;;;;;;;18.89;94.13;99734.97;4889579;29;20302;-63
2022/08/18 12:26:40;;;;;;;13.30;6.93;;;;;;;18.70;95.14;99734.34;4808332;29;20356;-63
2022/08/18 12:30:05;;;;;;;10.95;6.10;;;;;;;18.60;95.39;99730.53;4886093;29;20448;-65
2022/08/18 12:32:53;;;;;;;20.95;6.65;;;;;;;18.42;95.41;99709.47;4889602;29;20049;-64
2022/08/18 12:35:56;;;;;;;12.17;6.53;;;;;;;18.53;95.58;99728.22;4896622;29;20063;-64
2022/08/18 12:38:43;;;;;;;18.27;7.03;;;;;;;18.52;95.76;99731.81;4909768;29;20633;-64
2022/08/18 12:41:42;;;;;;;14.97;6.23;;;;;;;18.44;95.90;99718.16;4901493;29;20344;-65
2022/08/18 12:44:27;;;;;;;17.70;7.23;;;;;;;18.43;96.52;99719.09;4907767;29;20292;-64
2022/08/18 12:47:32;;;;;;;11.33;6.13;;;;;;;18.50;96.26;99716.97;4908625;29;20366;-64
2022/08/18 12:50:24;;;;;;;9.47;6.07;;;;;;;18.41;95.98;99697.19;4908276;29;20333;-64
2022/08/18 12:53:18;;;;;;;13.90;6.10;;;;;;;18.39;96.50;99703.50;4936968;29;20366;-65
2022/08/18 12:56:28;;;;;;;14.70;7.07;;;;;;;18.37;96.54;99703.59;5004136;28;20286;-64
2022/08/18 12:59:34;;;;;;;21.30;7.57;;;;;;;18.37;96.79;99711.53;5004655;28;20359;-66
2022/08/18 13:02:15;;;;;;;18.03;7.63;;;;;;;18.19;97.18;99696.69;4978659;28;20498;-64
2022/08/18 13:05:05;;;;;;;23.80;8.43;;;;;;;18.31;97.11;99723.28;5043569;28;20367;-64
2022/08/18 13:07:42;;;;;;;18.47;8.30;;;;;;;18.29;97.31;99724.31;4999717;28;20304;-65
2022/08/18 13:10:33;;;;;;;18.87;8.00;;;;;;;18.20;96.99;99714.28;5043662;28;20310;-65
2022/08/18 13:13:22;;;;;;;25.30;8.83;;;;;;;18.22;97.33;99717.66;5044195;28;20303;-64
2022/08/18 13:16:02;;;;;;;24.13;8.13;;;;;;;18.20;96.87;99719.59;5000936;28;20280;-64
2022/08/18 13:19:27;;;;;;;17.50;7.53;;;;;;;18.04;96.68;99696.63;5042686;28;20322;-65
2022/08/18 13:25:30;;;;;;;20.83;6.90;;;;;;;18.09;96.55;99707.78;5004830;28;20351;-64
2022/08/18 13:28:11;;;;;;;16.80;7.30;;;;;;;18.10;96.21;99708.66;5043253;28;20284;-65
2022/08/18 13:30:54;;;;;;;18.43;6.57;;;;;;;18.10;96.04;99704.22;5043118;28;20308;-66
2022/08/18 13:33:43;;;;;;;13.30;6.13;;;;;;;18.07;95.87;99699.13;5043063;28;20356;-65
2022/08/18 13:36:43;;;;;;;20.13;6.23;;;;;;;18.03;95.83;99694.94;5043094;28;20360;-65
2022/08/18 13:39:28;;;;;;;13.97;6.43;;;;;;;18.02;95.98;99674.72;5043231;28;20292;-64
2022/08/18 13:42:07;;;;;;;14.70;6.20;;;;;;;18.00;95.69;99671.31;5043118;28;20280;-65
2022/08/18 13:45:04;;;;;;;13.27;5.57;;;;;;;17.93;95.42;99669.97;5042957;28;20133;-64
2022/08/18 13:47:56;;;;;;;12.40;6.00;;;;;;;17.92;95.34;99662.09;5016120;28;20292;-64
2022/08/18 13:50:47;;;;;;;15.97;5.83;;;;;;;17.91;95.32;99666.53;5042695;28;20335;-64
2022/08/18 13:53:47;;;;;;;13.63;5.77;;;;;;;17.82;95.60;99654.72;5041735;28;20562;-64
2022/08/18 13:57:06;;;;;;;12.13;5.67;;;;;;;17.59;95.62;99613.66;5016620;28;20379;-64
2022/08/18 13:59:57;;;;;;;19.73;5.97;;;;;;;17.82;95.71;99641.50;5003012;28;20300;-64
2022/08/18 14:02:59;;;;;;;15.93;5.03;;;;;;;17.82;95.09;99630.94;5042080;28;20674;-64
2022/08/18 14:09:04;;;;;;;15.67;5.60;;;;;;;17.62;93.36;99576.53;5041768;28;20565;-64
2022/08/18 14:12:03;;;;;;;19.97;5.43;;;;;;;17.86;93.31;99615.72;5042106;28;20284;-64
2022/08/18 14:14:41;;;;;;;15.10;5.35;;;;;;;17.83;93.61;99615.91;5026167;28;20703;-64
2022/08/18 14:17:34;;;;;;;14.83;5.33;;;;;;;17.77;93.75;99621.50;5041219;28;20045;-64
2022/08/18 14:32:53;;;;;;;14.97;5.97;;;;;;;17.46;95.02;99617.94;5042290;28;20041;-65
2022/08/18 14:35:46;;;;;;;7.90;5.13;;;;;;;17.50;95.07;99635.31;5042051;28;20368;-64
2022/08/18 14:38:43;;;;;;;16.27;6.78;;;;;;;17.43;95.14;99623.38;5042530;28;20276;-64
2022/08/18 14:41:38;;;;;;;72.33;8.67;;;;;;;17.14;95.45;99575.66;5042505;28;20331;-65
2022/08/18 14:48:16;;;;;;;12.20;6.63;;;;;;;17.48;94.51;99605.50;5062286;28;20255;-64
2022/08/18 14:50:57;;;;;;;15.90;6.07;;;;;;;17.38;94.07;99593.75;5062010;28;20374;-64
2022/08/18 14:53:51;;;;;;;11.07;5.70;;;;;;;17.39;94.11;99611.28;5062346;28;20341;-64
2022/08/18 14:56:32;;;;;;;16.03;7.20;;;;;;;17.40;94.58;99607.72;5061800;28;20290;-64
2022/08/18 14:59:13;;;;;;;10.00;6.00;;;;;;;17.35;95.24;99599.19;5062302;28;20288;-64
2022/08/18 15:01:59;;;;;;;12.43;7.20;;;;;;;17.48;96.03;99609.94;5061850;28;20520;-64
2022/08/18 15:05:04;;;;;;;16.23;8.30;;;;;;;17.31;96.62;99573.88;5033195;28;20275;-64
2022/08/18 15:07:57;;;;;;;67.13;10.77;;;;;;;17.29;97.27;99552.84;5060956;28;20318;-64
2022/08/18 15:10:49;;;;;;;34.72;8.63;;;;;;;17.46;97.60;99570.38;5061605;28;20548;-66
2022/08/18 15:13:32;;;;;;;84.47;10.53;;;;;;;17.55;98.31;99596.31;5035744;28;20056;-65
2022/08/18 15:16:12;;;;;;;;;;;;;;;17.56;98.76;99611.19;5062537;28;20288;-64
2022/08/18 15:27:59;;;;;;;61.93;9.27;;;;;;;16.98;98.93;99495.63;5044810;28;20307;-65
2022/08/18 15:30:57;;;;;;;41.17;8.90;;;;;;;17.52;99.04;99607.00;5060756;28;20325;-64
2022/08/18 15:34:06;;;;;;;27.03;8.93;;;;;;;17.41;98.88;99593.56;5061098;28;20287;-64
2022/08/18 15:43:11;;;;;;;15.87;8.77;;;;;;;17.28;99.67;99581.97;5061660;28;20673;-65
2022/08/18 15:46:21;;;;;;;18.57;10.40;;;;;;;17.47;99.71;99609.06;5061694;28;20283;-66
2022/08/18 15:49:10;;;;;;;;;;;;;;;;;;;;;
2022/08/18 15:51:51;;;;;;;;;;;;;;;17.55;100.00;99612.16;4999459;28;20576;-64
2022/08/18 15:54:52;;;;;;;18.67;10.77;;;;;;;17.53;100.00;99603.44;5061402;28;20190;-66
2022/08/18 15:57:54;;;;;;;;;;;;;;;;;;;;;
2022/08/18 16:00:51;;;;;;;19.10;12.33;;;;;;;17.51;100.00;99600.03;5061292;28;20055;-64
2022/08/18 16:03:39;;;;;;;21.53;12.10;;;;;;;17.52;100.00;99607.00;5060972;28;20363;-63
2022/08/18 16:06:32;;;;;;;17.87;11.73;;;;;;;17.40;100.00;99573.38;5046002;28;20284;-64
2022/08/18 16:09:26;;;;;;;16.97;11.30;;;;;;;17.58;100.00;99606.69;5061412;28;20294;-65
2022/08/18 16:12:25;;;;;;;14.93;11.30;;;;;;;17.63;100.00;99620.50;5079686;28;20386;-64
2022/08/18 16:15:30;;;;;;;11.80;9.73;;;;;;;17.71;100.00;99621.84;5103447;28;20040;-65
2022/08/18 16:18:16;;;;;;;14.80;10.57;;;;;;;17.57;100.00;99609.41;5073512;28;20290;-63
2022/08/18 16:20:57;;;;;;;15.23;10.17;;;;;;;17.72;100.00;99634.13;5105257;28;20432;-64
2022/08/18 16:23:36;;;;;;;16.07;10.57;;;;;;;17.79;100.00;99641.59;5106853;28;20301;-64
2022/08/18 16:26:19;;;;;;;19.03;11.00;;;;;;;17.74;100.00;99626.97;5073627;28;20324;-63
2022/08/18 16:29:10;;;;;;;21.27;11.87;;;;;;;17.73;100.00;99630.56;5106997;28;20286;-64
2022/08/18 16:31:58;;;;;;;15.97;11.43;;;;;;;17.77;100.00;99653.19;5107005;28;20298;-63
2022/08/18 16:35:01;;;;;;;;;;;;;;;;;;;;;
2022/08/18 16:37:45;;;;;;;21.37;11.47;;;;;;;17.68;100.00;99639.56;5075443;28;20082;-64
2022/08/18 16:40:39;;;;;;;22.50;10.43;;;;;;;17.59;100.00;99624.22;5106868;28;20287;-61
2022/08/18 16:43:43;;;;;;;15.70;10.60;;;;;;;17.91;100.00;99671.81;5106624;28;20282;-63
2022/08/18 16:46:41;;;;;;;25.33;11.70;;;;;;;17.85;100.00;99666.91;5106280;28;20290;-64
2022/08/18 16:49:22;;;;;;;15.50;9.93;;;;;;;17.90;100.00;99680.72;5105804;28;20301;-64
2022/08/18 16:52:09;;;;;;;22.17;12.60;;;;;;;17.95;99.91;99689.22;5106558;28;20298;-64
2022/08/18 16:55:13;;;;;;;17.77;10.27;;;;;;;17.98;100.00;99683.75;5106100;28;20305;-63
2022/08/18 17:04:11;;;;;;;18.03;11.00;;;;;;;17.91;99.05;99653.31;5106511;28;20296;-65
2022/08/18 17:07:09;;;;;;;19.65;12.05;;;;;;;18.08;98.95;99679.66;5106332;28;20290;-64
2022/08/18 17:09:58;;;;;;;18.80;10.53;;;;;;;18.10;98.60;99671.66;5106308;28;20078;-62
2022/08/18 17:15:27;;;;;;;16.93;11.33;;;;;;;18.10;98.34;99664.56;5076776;28;20657;-63
2022/08/18 17:18:26;;;;;;;15.83;10.37;;;;;;;17.65;98.52;99592.19;5106278;28;20325;-65
2022/08/18 17:21:18;;;;;;;17.90;10.70;;;;;;;17.93;98.79;99643.53;5105967;28;20463;-63
2022/08/18 17:24:02;;;;;;;21.67;11.00;;;;;;;17.94;98.91;99641.72;5104964;28;20381;-62
2022/08/18 17:26:58;;;;;;;20.70;11.57;;;;;;;17.96;99.01;99645.13;5089372;28;20456;-65
2022/08/18 17:30:09;;;;;;;17.60;10.70;;;;;;;17.89;99.04;99648.13;5105254;28;20286;-64
2022/08/18 17:33:25;;;;;;;17.67;10.17;;;;;;;17.90;98.95;99649.00;5105052;28;20312;-64
2022/08/18 17:36:23;;;;;;;17.20;10.67;;;;;;;17.88;99.14;99641.13;5105687;28;20328;-64
2022/08/18 17:39:09;;;;;;;14.40;9.43;;;;;;;17.93;99.24;99648.81;5105859;28;20294;-64
2022/08/18 17:44:59;;;;;;;15.63;8.77;;;;;;;17.96;98.71;99659.19;5105812;28;20290;-64
2022/08/18 17:47:44;;;;;;;20.83;8.77;;;;;;;17.86;98.74;99642.16;5105321;28;20293;-66
2022/08/18 17:53:38;;;;;;;12.33;8.43;;;;;;;17.84;98.90;99622.88;5086665;28;20318;-63
2022/08/18 17:56:26;;;;;;;13.32;7.07;;;;;;;17.77;99.04;99613.56;5069956;28;20310;-63
2022/08/18 18:03:00;;;;;;;15.70;7.68;;;;;;;17.81;99.17;99612.50;5084680;28;20346;-63
2022/08/18 18:05:43;;;;;;;12.40;6.53;;;;;;;17.82;99.20;99603.63;5104899;28;20055;-63
2022/08/18 18:08:24;;;;;;;14.87;6.23;;;;;;;17.82;99.00;99593.06;5105173;28;20306;-66
2022/08/18 18:11:20;;;;;;;12.83;6.67;;;;;;;17.50;99.31;99540.25;5103937;28;20373;-63
2022/08/18 18:17:18;;;;;;;12.57;6.10;;;;;;;17.80;99.55;99587.88;5098553;28;20333;-62
2022/08/18 18:20:13;;;;;;;9.50;5.83;;;;;;;17.79;99.54;99582.63;5105188;28;20365;-63
2022/08/18 18:23:17;;;;;;;10.17;5.60;;;;;;;17.84;99.42;99575.31;5104443;28;20324;-63
2022/08/18 18:30:04;;;;;;;9.47;5.33;;;;;;;17.78;99.66;99557.16;5104445;28;20434;-63
2022/08/18 18:32:53;;;;;;;14.07;5.67;;;;;;;17.71;99.64;99537.31;5104355;28;20682;-64
2022/08/18 18:35:32;;;;;;;10.80;5.10;;;;;;;17.77;99.15;99547.50;5104352;28;20331;-65
2022/08/18 18:38:33;;;;;;;13.87;5.87;;;;;;;17.77;99.25;99547.50;5103467;28;20346;-64
2022/08/18 18:41:37;;;;;;;9.37;4.83;;;;;;;17.76;99.44;99545.81;5103552;28;20436;-65
2022/08/18 18:44:12;;;;;;;13.10;6.20;;;;;;;17.76;99.27;99543.19;5104456;28;20286;-65
2022/08/18 18:50:18;;;;;;;13.93;5.57;;;;;;;17.71;99.37;99558.44;5103806;28;20290;-65
2022/08/18 18:53:09;;;;;;;16.20;6.63;;;;;;;17.69;99.23;99566.44;5086110;28;20338;-65
2022/08/18 18:55:51;;;;;;;12.67;6.10;;;;;;;17.65;99.20;99576.34;5104034;28;20369;-64
2022/08/18 18:58:54;;;;;;;14.47;7.07;;;;;;;17.60;99.31;99567.84;5103397;28;20309;-64
2022/08/18 19:02:14;;;;;;;14.10;5.67;;;;;;;17.53;99.61;99566.47;5103436;28;20294;-64
2022/08/18 19:05:28;;;;;;;13.27;5.93;;;;;;;17.50;99.52;99561.38;5074207;28;20339;-64
2022/08/18 19:08:25;;;;;;;9.97;5.53;;;;;;;17.50;99.54;99582.50;5103807;28;20290;-64
2022/08/18 19:11:08;;;;;;;11.27;5.47;;;;;;;17.63;99.55;99599.34;5104161;28;20294;-63
2022/08/18 19:14:04;;;;;;;14.93;5.90;;;;;;;17.67;99.46;99595.63;5103798;28;20298;-64
2022/08/18 19:16:51;;;;;;;11.73;5.80;;;;;;;17.69;99.59;99593.72;5087513;28;20366;-64
2022/08/18 19:19:37;;;;;;;9.60;5.43;;;;;;;17.31;99.60;99518.44;5103394;28;20282;-63
2022/08/18 19:22:27;;;;;;;8.70;4.85;;;;;;;17.80;99.61;99584.38;5087236;28;20694;-64
2022/08/18 19:25:15;;;;;;;12.63;5.03;;;;;;;17.83;99.46;99592.97;5103559;28;20056;-64
2022/08/18 19:28:10;;;;;;;10.53;5.27;;;;;;;17.80;99.28;99594.97;5086743;28;20290;-64
2022/08/18 19:30:58;;;;;;;9.80;4.87;;;;;;;17.90;99.53;99606.69;5103126;28;20392;-64
2022/08/18 19:33:50;;;;;;;13.87;5.57;;;;;;;17.62;99.18;99571.25;5103618;28;20310;-64
2022/08/18 19:36:34;;;;;;;11.40;4.97;;;;;;;17.88;99.18;99613.84;5103596;28;20305;-64
2022/08/18 19:39:21;;;;;;;9.70;5.10;;;;;;;17.86;99.37;99626.31;5103990;28;20324;-64
2022/08/18 19:42:02;;;;;;;9.03;5.33;;;;;;;17.71;99.46;99600.72;5103025;28;20675;-63
2022/08/18 19:44:44;;;;;;;13.33;5.20;;;;;;;17.73;99.02;99593.56;5103579;28;20317;-63
2022/08/18 19:47:44;;;;;;;15.60;5.10;;;;;;;17.81;99.02;99615.16;5103412;28;20283;-64
2022/08/18 19:50:35;;;;;;;8.13;4.50;;;;;;;17.74;98.80;99605.81;5104099;28;20286;-63
2022/08/18 19:53:56;;;;;;;62.47;7.73;;;;;;;17.91;98.73;99642.75;5107464;28;20370;-63
2022/08/18 19:57:02;;;;;;;13.47;5.80;;;;;;;17.90;98.65;99649.00;5107708;28;20319;-64
2022/08/18 20:04:01;;;;;;;11.23;5.93;;;;;;;17.92;98.64;99655.00;5064357;28;20284;-64
2022/08/18 20:07:24;;;;;;;10.00;5.40;;;;;;;17.94;98.57;99668.16;5033509;28;20491;-63
2022/08/18 20:13:37;;;;;;;10.53;4.97;;;;;;;17.85;98.32;99683.59;5065008;28;20322;-63
2022/08/18 20:16:25;;;;;;;14.47;5.90;;;;;;;17.96;98.10;99690.91;5065040;28;20426;-64
2022/08/18 20:19:45;;;;;;;9.03;5.00;;;;;;;18.02;98.14;99701.16;5064859;28;20322;-63
2022/08/18 20:22:35;;;;;;;28.83;5.73;;;;;;;18.08;97.77;99699.97;5064782;28;20306;-64
2022/08/18 20:26:01;;;;;;;14.57;5.13;;;;;;;18.10;97.26;99712.16;5064924;28;20298;-63
2022/08/18 20:28:55;;;;;;;8.30;5.10;;;;;;;18.32;96.76;99713.56;5064863;28;20290;-64
2022/08/18 20:32:03;;;;;;;10.07;4.87;;;;;;;18.63;95.50;99701.22;5064689;28;20305;-64
2022/08/18 20:34:43;;;;;;;9.10;4.70;;;;;;;18.75;94.41;99684.63;5064711;28;20312;-65
2022/08/18 20:37:26;;;;;;;11.37;5.23;;;;;;;18.76;93.72;99678.41;5064354;28;20283;-64
2022/08/18 20:40:34;;;;;;;7.85;4.93;;;;;;;18.73;93.46;99676.78;5063930;28;20299;-64
2022/08/18 20:43:31;;;;;;;23.03;5.57;;;;;;;18.69;93.38;99680.53;5073904;28;20064;-65
2022/08/18 20:46:36;;;;;;;12.33;4.80;;;;;;;18.75;93.25;99684.63;5106058;28;20299;-64
2022/08/18 20:49:32;;;;;;;15.17;4.90;;;;;;;18.77;93.36;99688.06;5106552;28;20312;-64
2022/08/18 20:52:25;;;;;;;9.80;5.30;;;;;;;18.84;92.97;99678.78;5106506;28;20286;-64
2022/08/18 20:55:26;;;;;;;5.67;4.50;;;;;;;19.22;92.19;99693.31;5106410;28;20571;-64
2022/08/18 20:58:11;;;;;;;7.17;4.63;;;;;;;19.10;91.14;99626.09;5106443;28;20297;-67
2022/08/18 21:00:58;;;;;;;7.10;5.27;;;;;;;19.54;90.40;99689.50;5108333;28;20622;-65
2022/08/18 21:04:06;;;;;;;7.80;5.17;;;;;;;19.38;90.22;99662.28;5109371;28;20344;-62
2022/08/18 21:06:50;;;;;;;9.47;5.30;;;;;;;19.54;89.96;99680.72;5106313;28;20575;-64
2022/08/18 21:09:51;;;;;;;9.87;5.97;;;;;;;19.73;89.79;99678.66;5105949;28;20290;-63
2022/08/18 21:12:54;;;;;;;20.00;6.43;;;;;;;19.78;88.96;99655.34;5106029;28;20290;-63
2022/08/18 21:15:42;;;;;;;23.92;7.10;;;;;;;20.14;88.41;99682.22;5106108;28;20286;-62
2022/08/18 21:18:36;;;;;;;9.17;6.00;;;;;;;20.33;87.18;99665.97;5083867;28;20190;-63
2022/08/18 21:21:26;;;;;;;15.83;6.13;;;;;;;20.77;86.48;99681.59;5052325;28;20291;-63
2022/08/18 21:24:07;;;;;;;10.73;5.57;;;;;;;21.06;85.26;99676.91;5084039;28;20295;-63
2022/08/18 21:27:08;;;;;;;13.37;5.87;;;;;;;21.36;84.11;99686.38;5083646;28;20298;-61
2022/08/18 21:29:59;;;;;;;14.73;5.77;;;;;;;21.62;83.39;99689.03;5083432;28;20481;-62
2022/08/18 21:32:56;;;;;;;11.00;5.17;;;;;;;21.74;82.14;99675.72;5042709;28;20333;-63
2022/08/18 21:35:38;;;;;;;65.73;10.00;;;;;;;21.74;81.86;99666.88;5049729;28;20286;-63
2022/08/18 21:38:46;;;;;;;9.17;4.80;;;;;;;21.61;80.16;99671.38;5083451;28;20282;-64
2022/08/18 21:41:53;;;;;;;16.53;4.00;;;;;;;21.33;79.63;99652.03;5080066;28;20295;-62
2022/08/18 21:44:44;;;;;;;12.77;3.87;;;;;;;21.26;79.67;99661.41;5081887;28;20318;-62
2022/08/18 21:47:28;;;;;;;7.60;3.57;;;;;;;21.21;79.67;99668.84;5082487;28;20337;-64
2022/08/18 21:50:21;;;;;;;5.83;3.03;;;;;;;21.25;78.86;99675.66;5095907;28;20575;-63
2022/08/18 21:53:10;;;;;;;9.07;3.27;;;;;;;21.25;78.25;99675.66;5089361;28;20504;-65
2022/08/18 21:55:53;;;;;;;18.73;4.27;;;;;;;21.22;77.61;99657.28;5104829;28;20341;-64
2022/08/18 21:58:40;;;;;;;;;;;;;;;21.30;77.60;99673.53;5102998;28;20279;-65
2022/08/18 22:01:32;;;;;;;7.33;2.67;;;;;;;21.30;77.57;99673.53;5104373;28;20124;-63
2022/08/18 22:07:24;;;;;;;6.50;3.20;;;;;;;21.45;77.31;99672.47;5104792;28;19916;-64
2022/08/18 22:14:00;;;;;;;6.17;3.17;;;;;;;21.36;76.16;99646.50;5104025;28;20309;-65
2022/08/18 22:16:48;;;;;;;6.63;2.90;;;;;;;21.48;76.15;99680.22;5104985;28;20692;-64
2022/08/18 22:19:44;;;;;;;8.30;3.10;;;;;;;21.53;76.62;99675.44;5105335;28;20300;-64